Accueil
METAR-TAF:

METAR-TAF

Aéroports :

Aéroport de Quimper Bretagne, Pluguffan

Quimper, France

latitude: 47-58N, longitude: 004-10W, altitude: 92 m

Observation

Le bulletin a été fait il y a 42 minutes, à 11:30 UTC
Vent 10 kt de est/nord-est, variant entre nord-est et est/sud-est
Température 26°C
Humidité 37%
Pression 1032 hPa
Visibilité 10 km ou plus
pas de nuages en-dessous de 1500 mètres et pas de cumulonimbus.

METAR: LFRQ 271130Z AUTO 07010KT 040V110 CAVOK 26/10 Q1032

Heure: 14:12 (12:12 UTC)


TAF: absent

Observations et prévisions météorologiques de plus de 4000 aéroports (messages METAR et TAF).

Les stations disponibles sont représentées par des disques jaunes et rouges sur la carte.

Passer la souris dessus pour voir le nom de la station.

Cliquer dessus pour voir les observations et prévisions météorologiques.

Pour changer de carte: cliquez sur les boutons verts avec une croix noire pour zoomer, sur le bouton vert avec un tiret pour effectuer un zoom arrière, ou sur les flèches vertes pour les cartes adjacentes.


METAR-TAF: